sensor_id;sensor_type;location;lat;lon;timestamp;P1;durP1;ratioP1;P2;durP2;ratioP2
69183;SDS011;56291;53.960;27.550;2023-05-10T05:10:42;5.40;;;2.53;;
69183;SDS011;56291;53.960;27.550;2023-05-10T05:13:08;6.20;;;2.85;;
69183;SDS011;56291;53.960;27.550;2023-05-10T05:15:34;5.85;;;3.00;;
69183;SDS011;56291;53.960;27.550;2023-05-10T05:18:00;4.55;;;2.40;;
69183;SDS011;56291;53.960;27.550;2023-05-10T05:20:27;3.70;;;2.50;;
69183;SDS011;56291;53.960;27.550;2023-05-10T05:22:53;5.78;;;2.85;;
69183;SDS011;56291;53.960;27.550;2023-05-10T05:25:19;6.30;;;3.20;;
69183;SDS011;56291;53.960;27.550;2023-05-10T05:27:49;3.50;;;2.58;;
69183;SDS011;56291;53.960;27.550;2023-05-10T05:30:16;5.50;;;2.95;;
69183;SDS011;56291;53.960;27.550;2023-05-10T05:32:42;5.13;;;2.17;;
69183;SDS011;56291;53.960;27.550;2023-05-10T05:35:08;10.88;;;3.00;;
69183;SDS011;56291;53.960;27.550;2023-05-10T05:37:34;6.45;;;3.00;;
69183;SDS011;56291;53.960;27.550;2023-05-10T05:40:01;4.15;;;2.88;;
69183;SDS011;56291;53.960;27.550;2023-05-10T05:42:27;9.07;;;2.80;;
69183;SDS011;56291;53.960;27.550;2023-05-10T05:44:53;4.90;;;2.67;;
69183;SDS011;56291;53.960;27.550;2023-05-10T05:47:20;4.15;;;2.80;;
69183;SDS011;56291;53.960;27.550;2023-05-10T05:49:46;6.70;;;3.28;;
69183;SDS011;56291;53.960;27.550;2023-05-10T05:52:12;5.65;;;2.58;;
69183;SDS011;56291;53.960;27.550;2023-05-10T05:54:38;8.27;;;3.17;;
69183;SDS011;56291;53.960;27.550;2023-05-10T05:57:05;8.85;;;4.00;;
69183;SDS011;56291;53.960;27.550;2023-05-10T05:59:32;14.18;;;6.20;;
69183;SDS011;56291;53.960;27.550;2023-05-10T06:01:58;10.45;;;4.78;;
69183;SDS011;56291;53.960;27.550;2023-05-10T06:04:25;14.95;;;5.80;;
69183;SDS011;56291;53.960;27.550;2023-05-10T06:06:51;12.68;;;5.03;;
69183;SDS011;56291;53.960;27.550;2023-05-10T06:09:18;8.82;;;4.55;;
69183;SDS011;56291;53.960;27.550;2023-05-10T06:11:44;8.45;;;4.13;;
69183;SDS011;56291;53.960;27.550;2023-05-10T06:14:10;13.70;;;5.45;;
69183;SDS011;56291;53.960;27.550;2023-05-10T06:16:36;13.95;;;5.50;;
69183;SDS011;56291;53.960;27.550;2023-05-10T06:19:03;8.82;;;4.57;;
69183;SDS011;56291;53.960;27.550;2023-05-10T06:21:29;12.07;;;5.03;;
69183;SDS011;56291;53.960;27.550;2023-05-10T06:23:55;9.98;;;5.00;;
69183;SDS011;56291;53.960;27.550;2023-05-10T06:29:25;5.95;;;3.80;;
69183;SDS011;56291;53.960;27.550;2023-05-10T06:31:51;7.40;;;3.97;;
69183;SDS011;56291;53.960;27.550;2023-05-10T06:34:19;10.25;;;3.67;;
69183;SDS011;56291;53.960;27.550;2023-05-10T06:36:45;8.55;;;3.42;;
69183;SDS011;56291;53.960;27.550;2023-05-10T06:39:11;6.25;;;3.58;;
69183;SDS011;56291;53.960;27.550;2023-05-10T06:41:37;10.45;;;4.22;;
69183;SDS011;56291;53.960;27.550;2023-05-10T06:44:04;7.13;;;3.55;;
69183;SDS011;56291;53.960;27.550;2023-05-10T06:46:30;10.30;;;2.88;;
69183;SDS011;56291;53.960;27.550;2023-05-10T06:48:56;9.73;;;3.70;;
69183;SDS011;56291;53.960;27.550;2023-05-10T06:51:23;6.00;;;3.13;;
69183;SDS011;56291;53.960;27.550;2023-05-10T06:53:49;6.35;;;3.05;;
69183;SDS011;56291;53.960;27.550;2023-05-10T06:56:15;12.50;;;3.30;;
69183;SDS011;56291;53.960;27.550;2023-05-10T06:58:42;5.38;;;2.55;;
69183;SDS011;56291;53.960;27.550;2023-05-10T07:01:08;5.13;;;2.35;;
69183;SDS011;56291;53.960;27.550;2023-05-10T07:03:34;5.13;;;2.53;;
69183;SDS011;56291;53.960;27.550;2023-05-10T07:06:01;4.80;;;2.15;;
69183;SDS011;56291;53.960;27.550;2023-05-10T07:08:29;4.32;;;2.40;;
69183;SDS011;56291;53.960;27.550;2023-05-10T07:11:02;7.03;;;2.15;;
69183;SDS011;56291;53.960;27.550;2023-05-10T07:13:30;5.55;;;2.40;;
69183;SDS011;56291;53.960;27.550;2023-05-10T07:15:57;6.63;;;2.25;;
69183;SDS011;56291;53.960;27.550;2023-05-10T07:18:24;6.28;;;2.38;;
69183;SDS011;56291;53.960;27.550;2023-05-10T07:20:50;4.75;;;2.33;;
69183;SDS011;56291;53.960;27.550;2023-05-10T07:23:17;5.15;;;2.03;;
69183;SDS011;56291;53.960;27.550;2023-05-10T07:25:47;3.83;;;2.20;;
69183;SDS011;56291;53.960;27.550;2023-05-10T07:28:14;4.47;;;2.30;;
69183;SDS011;56291;53.960;27.550;2023-05-10T07:30:41;4.57;;;2.00;;
69183;SDS011;56291;53.960;27.550;2023-05-10T07:33:08;3.45;;;1.90;;
69183;SDS011;56291;53.960;27.550;2023-05-10T07:35:36;2.63;;;2.10;;
69183;SDS011;56291;53.960;27.550;2023-05-10T07:38:02;6.75;;;2.20;;
69183;SDS011;56291;53.960;27.550;2023-05-10T07:40:29;3.22;;;2.05;;
69183;SDS011;56291;53.960;27.550;2023-05-10T07:42:55;3.85;;;1.70;;
69183;SDS011;56291;53.960;27.550;2023-05-10T07:45:22;7.05;;;2.03;;
69183;SDS011;56291;53.960;27.550;2023-05-10T07:47:48;7.55;;;2.30;;
69183;SDS011;56291;53.960;27.550;2023-05-10T07:50:15;7.38;;;2.30;;
69183;SDS011;56291;53.960;27.550;2023-05-10T07:52:41;6.63;;;2.20;;
69183;SDS011;56291;53.960;27.550;2023-05-10T07:55:08;4.18;;;2.13;;
69183;SDS011;56291;53.960;27.550;2023-05-10T07:57:35;7.43;;;2.03;;
69183;SDS011;56291;53.960;27.550;2023-05-10T08:00:01;6.60;;;1.70;;
69183;SDS011;56291;53.960;27.550;2023-05-10T08:02:28;4.85;;;2.10;;
69183;SDS011;56291;53.960;27.550;2023-05-10T08:04:54;3.95;;;1.98;;
69183;SDS011;56291;53.960;27.550;2023-05-10T08:07:21;5.15;;;2.00;;
69183;SDS011;56291;53.960;27.550;2023-05-10T08:09:49;11.10;;;2.50;;
69183;SDS011;56291;53.960;27.550;2023-05-10T08:12:15;9.55;;;2.20;;
69183;SDS011;56291;53.960;27.550;2023-05-10T08:14:41;6.88;;;2.10;;
69183;SDS011;56291;53.960;27.550;2023-05-10T08:17:08;4.53;;;1.80;;
69183;SDS011;56291;53.960;27.550;2023-05-10T08:19:34;4.68;;;1.60;;
69183;SDS011;56291;53.960;27.550;2023-05-10T08:22:00;5.68;;;1.90;;
69183;SDS011;56291;53.960;27.550;2023-05-10T08:24:27;3.20;;;1.98;;
69183;SDS011;56291;53.960;27.550;2023-05-10T08:26:53;7.82;;;2.30;;
69183;SDS011;56291;53.960;27.550;2023-05-10T08:29:25;14.05;;;2.30;;
69183;SDS011;56291;53.960;27.550;2023-05-10T08:31:52;4.35;;;2.00;;
69183;SDS011;56291;53.960;27.550;2023-05-10T08:34:21;5.22;;;2.20;;
69183;SDS011;56291;53.960;27.550;2023-05-10T08:36:47;8.43;;;2.10;;
69183;SDS011;56291;53.960;27.550;2023-05-10T08:39:13;6.70;;;2.22;;
69183;SDS011;56291;53.960;27.550;2023-05-10T08:41:39;7.28;;;2.40;;
69183;SDS011;56291;53.960;27.550;2023-05-10T08:44:10;4.72;;;2.30;;
69183;SDS011;56291;53.960;27.550;2023-05-10T08:46:37;11.73;;;2.33;;
69183;SDS011;56291;53.960;27.550;2023-05-10T08:49:09;6.53;;;2.03;;
69183;SDS011;56291;53.960;27.550;2023-05-10T08:51:44;4.00;;;1.95;;
69183;SDS011;56291;53.960;27.550;2023-05-10T08:54:16;9.82;;;2.95;;
69183;SDS011;56291;53.960;27.550;2023-05-10T08:56:43;3.70;;;2.20;;
69183;SDS011;56291;53.960;27.550;2023-05-10T08:59:09;8.82;;;2.33;;
69183;SDS011;56291;53.960;27.550;2023-05-10T09:01:38;13.23;;;2.38;;
69183;SDS011;56291;53.960;27.550;2023-05-10T09:04:05;9.40;;;2.30;;
69183;SDS011;56291;53.960;27.550;2023-05-10T09:06:31;2.15;;;1.67;;
69183;SDS011;56291;53.960;27.550;2023-05-10T09:08:59;10.48;;;2.28;;
69183;SDS011;56291;53.960;27.550;2023-05-10T09:11:26;7.22;;;2.78;;
69183;SDS011;56291;53.960;27.550;2023-05-10T09:13:56;3.08;;;1.90;;
69183;SDS011;56291;53.960;27.550;2023-05-10T09:16:23;6.30;;;2.00;;
69183;SDS011;56291;53.960;27.550;2023-05-10T09:18:50;3.90;;;1.80;;
69183;SDS011;56291;53.960;27.550;2023-05-10T09:21:16;2.35;;;1.58;;
69183;SDS011;56291;53.960;27.550;2023-05-10T09:23:44;5.53;;;2.00;;
69183;SDS011;56291;53.960;27.550;2023-05-10T09:26:11;15.32;;;3.00;;
69183;SDS011;56291;53.960;27.550;2023-05-10T09:28:49;7.68;;;2.10;;
69183;SDS011;56291;53.960;27.550;2023-05-10T09:31:17;4.03;;;1.90;;
69183;SDS011;56291;53.960;27.550;2023-05-10T09:33:44;4.35;;;2.05;;
69183;SDS011;56291;53.960;27.550;2023-05-10T09:36:12;2.75;;;1.80;;
69183;SDS011;56291;53.960;27.550;2023-05-10T09:38:44;2.70;;;1.90;;
69183;SDS011;56291;53.960;27.550;2023-05-10T09:41:22;4.30;;;1.80;;
69183;SDS011;56291;53.960;27.550;2023-05-10T09:43:50;5.88;;;1.90;;
69183;SDS011;56291;53.960;27.550;2023-05-10T09:46:20;6.47;;;2.28;;
69183;SDS011;56291;53.960;27.550;2023-05-10T09:48:48;3.00;;;2.05;;
69183;SDS011;56291;53.960;27.550;2023-05-10T09:53:48;6.95;;;1.92;;
69183;SDS011;56291;53.960;27.550;2023-05-10T09:56:34;9.80;;;1.85;;
69183;SDS011;56291;53.960;27.550;2023-05-10T09:59:02;3.67;;;2.25;;
69183;SDS011;56291;53.960;27.550;2023-05-10T10:01:29;2.75;;;2.00;;
69183;SDS011;56291;53.960;27.550;2023-05-10T10:03:56;9.43;;;2.90;;
69183;SDS011;56291;53.960;27.550;2023-05-10T10:06:23;4.00;;;1.80;;
69183;SDS011;56291;53.960;27.550;2023-05-10T10:08:50;4.35;;;1.90;;
69183;SDS011;56291;53.960;27.550;2023-05-10T10:11:18;3.78;;;2.10;;
69183;SDS011;56291;53.960;27.550;2023-05-10T10:13:44;10.55;;;2.03;;
69183;SDS011;56291;53.960;27.550;2023-05-10T10:16:10;5.43;;;2.00;;
69183;SDS011;56291;53.960;27.550;2023-05-10T10:18:36;3.40;;;1.75;;
69183;SDS011;56291;53.960;27.550;2023-05-10T10:21:05;3.20;;;1.83;;
69183;SDS011;56291;53.960;27.550;2023-05-10T10:23:33;4.88;;;1.95;;
69183;SDS011;56291;53.960;27.550;2023-05-10T10:26:01;4.47;;;2.10;;
69183;SDS011;56291;53.960;27.550;2023-05-10T10:31:13;6.97;;;2.08;;
69183;SDS011;56291;53.960;27.550;2023-05-10T10:33:55;3.22;;;1.92;;
69183;SDS011;56291;53.960;27.550;2023-05-10T10:36:30;3.17;;;2.20;;
69183;SDS011;56291;53.960;27.550;2023-05-10T10:38:59;4.45;;;2.35;;
69183;SDS011;56291;53.960;27.550;2023-05-10T10:41:27;3.05;;;1.95;;
69183;SDS011;56291;53.960;27.550;2023-05-10T10:47:05;4.03;;;2.28;;
69183;SDS011;56291;53.960;27.550;2023-05-10T10:52:21;5.05;;;2.20;;
69183;SDS011;56291;53.960;27.550;2023-05-10T10:55:07;3.20;;;2.10;;
69183;SDS011;56291;53.960;27.550;2023-05-10T10:57:51;9.50;;;2.22;;
69183;SDS011;56291;53.960;27.550;2023-05-10T11:02:56;4.25;;;2.10;;
69183;SDS011;56291;53.960;27.550;2023-05-10T11:08:00;15.20;;;3.42;;
69183;SDS011;56291;53.960;27.550;2023-05-10T11:10:32;3.95;;;2.10;;
69183;SDS011;56291;53.960;27.550;2023-05-10T11:15:48;4.18;;;2.22;;
69183;SDS011;56291;53.960;27.550;2023-05-10T11:20:59;9.75;;;2.50;;
69183;SDS011;56291;53.960;27.550;2023-05-10T11:26:15;5.28;;;2.30;;
69183;SDS011;56291;53.960;27.550;2023-05-10T11:28:45;4.93;;;2.45;;
69183;SDS011;56291;53.960;27.550;2023-05-10T11:31:19;4.93;;;2.17;;
69183;SDS011;56291;53.960;27.550;2023-05-10T11:33:46;6.43;;;2.20;;
69183;SDS011;56291;53.960;27.550;2023-05-10T11:36:18;6.45;;;2.75;;
69183;SDS011;56291;53.960;27.550;2023-05-10T11:39:00;5.15;;;2.10;;
69183;SDS011;56291;53.960;27.550;2023-05-10T11:41:28;16.92;;;2.60;;
69183;SDS011;56291;53.960;27.550;2023-05-10T11:43:55;8.05;;;2.15;;
69183;SDS011;56291;53.960;27.550;2023-05-10T11:46:23;25.23;;;3.25;;
69183;SDS011;56291;53.960;27.550;2023-05-10T11:48:55;9.13;;;2.70;;
69183;SDS011;56291;53.960;27.550;2023-05-10T11:51:29;57.97;;;4.60;;
69183;SDS011;56291;53.960;27.550;2023-05-10T11:53:58;7.28;;;2.40;;
69183;SDS011;56291;53.960;27.550;2023-05-10T11:56:24;6.97;;;2.42;;
69183;SDS011;56291;53.960;27.550;2023-05-10T11:58:57;8.13;;;2.20;;
69183;SDS011;56291;53.960;27.550;2023-05-10T12:01:27;10.05;;;2.65;;
69183;SDS011;56291;53.960;27.550;2023-05-10T12:03:55;14.30;;;2.55;;
69183;SDS011;56291;53.960;27.550;2023-05-10T12:06:29;7.07;;;2.45;;
69183;SDS011;56291;53.960;27.550;2023-05-10T12:08:57;4.70;;;2.27;;
69183;SDS011;56291;53.960;27.550;2023-05-10T12:11:27;6.18;;;2.20;;
69183;SDS011;56291;53.960;27.550;2023-05-10T12:13:55;5.18;;;2.38;;
69183;SDS011;56291;53.960;27.550;2023-05-10T12:16:30;3.38;;;2.38;;
69183;SDS011;56291;53.960;27.550;2023-05-10T12:18:57;2.50;;;2.03;;
69183;SDS011;56291;53.960;27.550;2023-05-10T12:21:25;5.15;;;2.17;;
69183;SDS011;56291;53.960;27.550;2023-05-10T12:23:54;8.60;;;2.90;;
69183;SDS011;56291;53.960;27.550;2023-05-10T12:26:25;13.55;;;3.95;;
69183;SDS011;56291;53.960;27.550;2023-05-10T12:28:53;7.10;;;2.35;;
69183;SDS011;56291;53.960;27.550;2023-05-10T12:31:20;8.73;;;2.53;;
69183;SDS011;56291;53.960;27.550;2023-05-10T12:33:46;5.45;;;2.30;;
69183;SDS011;56291;53.960;27.550;2023-05-10T12:36:14;8.35;;;2.10;;
69183;SDS011;56291;53.960;27.550;2023-05-10T12:38:42;3.95;;;2.13;;
69183;SDS011;56291;53.960;27.550;2023-05-10T12:41:13;2.35;;;2.03;;
69183;SDS011;56291;53.960;27.550;2023-05-10T12:43:40;10.65;;;3.47;;
69183;SDS011;56291;53.960;27.550;2023-05-10T12:48:35;8.90;;;2.30;;
69183;SDS011;56291;53.960;27.550;2023-05-10T12:51:02;16.08;;;3.17;;
69183;SDS011;56291;53.960;27.550;2023-05-10T12:53:30;6.10;;;2.10;;
69183;SDS011;56291;53.960;27.550;2023-05-10T12:55:56;6.40;;;2.13;;
69183;SDS011;56291;53.960;27.550;2023-05-10T12:58:23;7.72;;;1.95;;
69183;SDS011;56291;53.960;27.550;2023-05-10T13:00:49;7.93;;;2.30;;
69183;SDS011;56291;53.960;27.550;2023-05-10T13:03:16;4.80;;;2.35;;
69183;SDS011;56291;53.960;27.550;2023-05-10T13:05:43;8.82;;;2.20;;
69183;SDS011;56291;53.960;27.550;2023-05-10T13:08:09;10.88;;;2.35;;
69183;SDS011;56291;53.960;27.550;2023-05-10T13:10:35;6.68;;;2.50;;
69183;SDS011;56291;53.960;27.550;2023-05-10T13:13:02;12.02;;;2.90;;
69183;SDS011;56291;53.960;27.550;2023-05-10T13:15:28;9.90;;;2.30;;
69183;SDS011;56291;53.960;27.550;2023-05-10T13:17:54;4.22;;;2.00;;
69183;SDS011;56291;53.960;27.550;2023-05-10T13:20:20;8.13;;;2.35;;
69183;SDS011;56291;53.960;27.550;2023-05-10T13:22:47;5.45;;;2.47;;
69183;SDS011;56291;53.960;27.550;2023-05-10T13:25:13;3.50;;;2.00;;
69183;SDS011;56291;53.960;27.550;2023-05-10T13:27:39;5.60;;;2.25;;
69183;SDS011;56291;53.960;27.550;2023-05-10T13:30:06;3.83;;;2.10;;
69183;SDS011;56291;53.960;27.550;2023-05-10T13:32:33;3.53;;;2.22;;
69183;SDS011;56291;53.960;27.550;2023-05-10T13:35:00;5.13;;;1.90;;
69183;SDS011;56291;53.960;27.550;2023-05-10T13:37:28;2.78;;;2.00;;
69183;SDS011;56291;53.960;27.550;2023-05-10T13:39:55;7.75;;;2.10;;
69183;SDS011;56291;53.960;27.550;2023-05-10T13:42:24;9.68;;;2.03;;
69183;SDS011;56291;53.960;27.550;2023-05-10T13:44:50;5.05;;;2.08;;
69183;SDS011;56291;53.960;27.550;2023-05-10T13:47:17;5.10;;;2.22;;
69183;SDS011;56291;53.960;27.550;2023-05-10T13:49:43;5.05;;;2.40;;
69183;SDS011;56291;53.960;27.550;2023-05-10T13:52:09;5.82;;;2.05;;
69183;SDS011;56291;53.960;27.550;2023-05-10T13:54:36;8.82;;;2.25;;
69183;SDS011;56291;53.960;27.550;2023-05-10T13:57:03;5.25;;;2.35;;
69183;SDS011;56291;53.960;27.550;2023-05-10T13:59:29;8.77;;;2.22;;
69183;SDS011;56291;53.960;27.550;2023-05-10T14:01:57;3.85;;;1.92;;
69183;SDS011;56291;53.960;27.550;2023-05-10T14:04:24;7.65;;;2.30;;
69183;SDS011;56291;53.960;27.550;2023-05-10T14:06:50;3.38;;;2.10;;
69183;SDS011;56291;53.960;27.550;2023-05-10T14:09:17;4.10;;;2.08;;
69183;SDS011;56291;53.960;27.550;2023-05-10T14:11:44;6.85;;;2.30;;
69183;SDS011;56291;53.960;27.550;2023-05-10T14:14:11;3.30;;;2.03;;
69183;SDS011;56291;53.960;27.550;2023-05-10T14:16:45;3.08;;;2.28;;
69183;SDS011;56291;53.960;27.550;2023-05-10T14:19:12;4.55;;;2.20;;
69183;SDS011;56291;53.960;27.550;2023-05-10T14:21:38;6.15;;;2.10;;
69183;SDS011;56291;53.960;27.550;2023-05-10T14:24:05;4.35;;;1.95;;
69183;SDS011;56291;53.960;27.550;2023-05-10T14:26:32;5.63;;;2.40;;
69183;SDS011;56291;53.960;27.550;2023-05-10T14:28:59;3.83;;;1.90;;
69183;SDS011;56291;53.960;27.550;2023-05-10T14:31:25;5.10;;;2.30;;
69183;SDS011;56291;53.960;27.550;2023-05-10T14:33:52;3.85;;;2.28;;
69183;SDS011;56291;53.960;27.550;2023-05-10T14:36:18;5.22;;;2.20;;
69183;SDS011;56291;53.960;27.550;2023-05-10T14:38:45;3.08;;;2.15;;
69183;SDS011;56291;53.960;27.550;2023-05-10T14:41:11;4.70;;;2.03;;
69183;SDS011;56291;53.960;27.550;2023-05-10T14:43:42;3.33;;;2.13;;
69183;SDS011;56291;53.960;27.550;2023-05-10T14:46:09;8.20;;;2.08;;
69183;SDS011;56291;53.960;27.550;2023-05-10T14:48:35;4.82;;;2.20;;
69183;SDS011;56291;53.960;27.550;2023-05-10T14:51:01;5.82;;;2.00;;
69183;SDS011;56291;53.960;27.550;2023-05-10T14:53:33;4.03;;;2.25;;
69183;SDS011;56291;53.960;27.550;2023-05-10T14:56:00;9.77;;;2.47;;
69183;SDS011;56291;53.960;27.550;2023-05-10T14:58:26;5.95;;;2.00;;
69183;SDS011;56291;53.960;27.550;2023-05-10T15:00:53;4.18;;;2.20;;
69183;SDS011;56291;53.960;27.550;2023-05-10T15:03:19;4.93;;;2.25;;
69183;SDS011;56291;53.960;27.550;2023-05-10T15:05:46;7.00;;;2.00;;
69183;SDS011;56291;53.960;27.550;2023-05-10T15:08:12;5.57;;;2.50;;
69183;SDS011;56291;53.960;27.550;2023-05-10T15:10:39;10.45;;;2.80;;
69183;SDS011;56291;53.960;27.550;2023-05-10T15:13:06;10.55;;;2.45;;
69183;SDS011;56291;53.960;27.550;2023-05-10T15:15:32;4.65;;;2.20;;
69183;SDS011;56291;53.960;27.550;2023-05-10T15:17:59;4.50;;;2.08;;
69183;SDS011;56291;53.960;27.550;2023-05-10T15:20:26;10.93;;;2.17;;
69183;SDS011;56291;53.960;27.550;2023-05-10T15:22:53;7.55;;;2.20;;
69183;SDS011;56291;53.960;27.550;2023-05-10T15:25:19;5.05;;;2.15;;
69183;SDS011;56291;53.960;27.550;2023-05-10T15:27:46;6.57;;;2.20;;
69183;SDS011;56291;53.960;27.550;2023-05-10T15:30:12;11.20;;;2.30;;
69183;SDS011;56291;53.960;27.550;2023-05-10T15:32:39;3.28;;;2.30;;
69183;SDS011;56291;53.960;27.550;2023-05-10T15:35:07;5.18;;;2.10;;
69183;SDS011;56291;53.960;27.550;2023-05-10T15:37:35;8.57;;;2.00;;
69183;SDS011;56291;53.960;27.550;2023-05-10T15:40:01;4.28;;;2.28;;
69183;SDS011;56291;53.960;27.550;2023-05-10T15:42:29;3.50;;;2.05;;
69183;SDS011;56291;53.960;27.550;2023-05-10T15:44:57;3.40;;;2.30;;
69183;SDS011;56291;53.960;27.550;2023-05-10T15:47:24;7.50;;;2.20;;
69183;SDS011;56291;53.960;27.550;2023-05-10T15:49:51;4.07;;;2.13;;
69183;SDS011;56291;53.960;27.550;2023-05-10T15:52:17;6.95;;;1.98;;
69183;SDS011;56291;53.960;27.550;2023-05-10T15:54:45;3.80;;;2.22;;
69183;SDS011;56291;53.960;27.550;2023-05-10T15:57:11;3.70;;;1.90;;
69183;SDS011;56291;53.960;27.550;2023-05-10T15:59:38;5.60;;;2.28;;
69183;SDS011;56291;53.960;27.550;2023-05-10T16:02:04;3.78;;;1.90;;
69183;SDS011;56291;53.960;27.550;2023-05-10T16:04:31;2.92;;;2.25;;
69183;SDS011;56291;53.960;27.550;2023-05-10T16:06:58;6.07;;;2.38;;
69183;SDS011;56291;53.960;27.550;2023-05-10T16:09:24;3.95;;;1.90;;
69183;SDS011;56291;53.960;27.550;2023-05-10T16:11:51;4.13;;;1.95;;
69183;SDS011;56291;53.960;27.550;2023-05-10T16:14:17;2.70;;;1.98;;
69183;SDS011;56291;53.960;27.550;2023-05-10T16:16:45;3.65;;;2.10;;
69183;SDS011;56291;53.960;27.550;2023-05-10T16:19:11;4.78;;;2.33;;
69183;SDS011;56291;53.960;27.550;2023-05-10T16:21:37;3.53;;;2.00;;
69183;SDS011;56291;53.960;27.550;2023-05-10T16:24:04;4.28;;;2.00;;
69183;SDS011;56291;53.960;27.550;2023-05-10T16:26:30;4.57;;;1.90;;
69183;SDS011;56291;53.960;27.550;2023-05-10T16:28:56;4.68;;;2.20;;
69183;SDS011;56291;53.960;27.550;2023-05-10T16:31:23;8.32;;;2.20;;
69183;SDS011;56291;53.960;27.550;2023-05-10T16:33:49;3.83;;;1.95;;
69183;SDS011;56291;53.960;27.550;2023-05-10T16:36:15;4.03;;;1.95;;
69183;SDS011;56291;53.960;27.550;2023-05-10T16:38:41;3.30;;;2.10;;
69183;SDS011;56291;53.960;27.550;2023-05-10T16:41:08;4.85;;;2.30;;
69183;SDS011;56291;53.960;27.550;2023-05-10T16:43:34;3.53;;;2.13;;
69183;SDS011;56291;53.960;27.550;2023-05-10T16:46:01;5.40;;;2.00;;
69183;SDS011;56291;53.960;27.550;2023-05-10T16:48:33;6.93;;;2.10;;
69183;SDS011;56291;53.960;27.550;2023-05-10T16:51:01;6.13;;;2.30;;
69183;SDS011;56291;53.960;27.550;2023-05-10T16:53:28;6.10;;;2.47;;
69183;SDS011;56291;53.960;27.550;2023-05-10T16:55:55;5.65;;;2.30;;
69183;SDS011;56291;53.960;27.550;2023-05-10T16:58:21;7.18;;;2.15;;
69183;SDS011;56291;53.960;27.550;2023-05-10T17:00:48;4.05;;;2.13;;
69183;SDS011;56291;53.960;27.550;2023-05-10T17:03:14;3.03;;;2.20;;
69183;SDS011;56291;53.960;27.550;2023-05-10T17:05:40;5.18;;;2.80;;
69183;SDS011;56291;53.960;27.550;2023-05-10T17:08:07;5.68;;;2.05;;
69183;SDS011;56291;53.960;27.550;2023-05-10T17:10:34;5.25;;;2.25;;
69183;SDS011;56291;53.960;27.550;2023-05-10T17:13:03;4.63;;;2.47;;
69183;SDS011;56291;53.960;27.550;2023-05-10T17:15:30;4.47;;;2.45;;
69183;SDS011;56291;53.960;27.550;2023-05-10T17:17:56;5.97;;;2.40;;
69183;SDS011;56291;53.960;27.550;2023-05-10T17:20:22;4.65;;;2.13;;
69183;SDS011;56291;53.960;27.550;2023-05-10T17:22:48;5.20;;;2.30;;
69183;SDS011;56291;53.960;27.550;2023-05-10T17:25:15;7.05;;;2.70;;
69183;SDS011;56291;53.960;27.550;2023-05-10T17:27:41;3.97;;;2.28;;
69183;SDS011;56291;53.960;27.550;2023-05-10T17:30:08;3.30;;;2.03;;
69183;SDS011;56291;53.960;27.550;2023-05-10T17:32:34;3.38;;;2.15;;
69183;SDS011;56291;53.960;27.550;2023-05-10T17:35:01;3.08;;;2.10;;
69183;SDS011;56291;53.960;27.550;2023-05-10T17:37:29;11.80;;;3.47;;
69183;SDS011;56291;53.960;27.550;2023-05-10T17:39:58;7.35;;;2.50;;
69183;SDS011;56291;53.960;27.550;2023-05-10T17:42:24;5.65;;;2.40;;
69183;SDS011;56291;53.960;27.550;2023-05-10T17:44:50;4.63;;;2.35;;
69183;SDS011;56291;53.960;27.550;2023-05-10T17:47:17;4.18;;;2.47;;
69183;SDS011;56291;53.960;27.550;2023-05-10T17:49:43;5.45;;;2.47;;
69183;SDS011;56291;53.960;27.550;2023-05-10T17:52:11;7.15;;;2.80;;
69183;SDS011;56291;53.960;27.550;2023-05-10T17:54:37;8.88;;;2.78;;
69183;SDS011;56291;53.960;27.550;2023-05-10T17:57:03;9.15;;;2.90;;
69183;SDS011;56291;53.960;27.550;2023-05-10T17:59:29;8.70;;;2.72;;
69183;SDS011;56291;53.960;27.550;2023-05-10T18:01:56;4.22;;;2.45;;
69183;SDS011;56291;53.960;27.550;2023-05-10T18:04:22;9.07;;;2.55;;
69183;SDS011;56291;53.960;27.550;2023-05-10T18:06:50;4.85;;;3.15;;
69183;SDS011;56291;53.960;27.550;2023-05-10T18:09:19;7.28;;;2.40;;
69183;SDS011;56291;53.960;27.550;2023-05-10T18:11:46;4.20;;;2.47;;
69183;SDS011;56291;53.960;27.550;2023-05-10T18:14:13;4.90;;;2.60;;
69183;SDS011;56291;53.960;27.550;2023-05-10T18:16:39;4.10;;;2.45;;
69183;SDS011;56291;53.960;27.550;2023-05-10T18:19:07;2.58;;;2.28;;
69183;SDS011;56291;53.960;27.550;2023-05-10T18:21:33;5.32;;;2.70;;
69183;SDS011;56291;53.960;27.550;2023-05-10T18:23:59;5.32;;;2.47;;
69183;SDS011;56291;53.960;27.550;2023-05-10T18:26:25;9.10;;;2.60;;
69183;SDS011;56291;53.960;27.550;2023-05-10T18:28:52;5.22;;;3.22;;
69183;SDS011;56291;53.960;27.550;2023-05-10T18:31:18;4.57;;;2.75;;
69183;SDS011;56291;53.960;27.550;2023-05-10T18:33:44;8.50;;;2.50;;
69183;SDS011;56291;53.960;27.550;2023-05-10T18:36:11;6.05;;;2.45;;
69183;SDS011;56291;53.960;27.550;2023-05-10T18:38:38;6.20;;;2.80;;
69183;SDS011;56291;53.960;27.550;2023-05-10T18:41:04;3.92;;;2.50;;
69183;SDS011;56291;53.960;27.550;2023-05-10T18:43:31;5.82;;;2.92;;
69183;SDS011;56291;53.960;27.550;2023-05-10T18:46:00;5.78;;;2.80;;
69183;SDS011;56291;53.960;27.550;2023-05-10T18:48:26;5.60;;;2.60;;
69183;SDS011;56291;53.960;27.550;2023-05-10T18:50:54;5.03;;;2.63;;
69183;SDS011;56291;53.960;27.550;2023-05-10T18:53:20;4.93;;;2.60;;
69183;SDS011;56291;53.960;27.550;2023-05-10T18:55:57;3.95;;;2.50;;
69183;SDS011;56291;53.960;27.550;2023-05-10T18:58:25;4.75;;;2.50;;
69183;SDS011;56291;53.960;27.550;2023-05-10T19:00:53;4.70;;;2.55;;
69183;SDS011;56291;53.960;27.550;2023-05-10T19:03:20;13.57;;;2.90;;
